Welcome to Northern Hawkes Bay. New Zealand.
PWS Header
      nz Flag



Hit Counter


W3C Valid W3C Valid logo


    Wairoa

Select any of the Stations below to visit their websites.










Historic Data from Weather Underground
Select the location of interest below. Wairoa is the default. Please have patience, this Data is slow to load in.
Northern Hawkes Bay Historical Data
Daily Summary for April 19, 2017 Units:  English    Metric   Both
« Previous Day
Next Day »
Daily Weekly Monthly Yearly Custom
  High: Low: Average:
Temperature: 71.2 °F 50.2 °F 58.3 °F
Dew Point: 55.4 °F 49.8 °F 52.7 °F
Humidity: 99% 52% 84%
Wind Speed: 6mph 0mph 0.9mph
Wind Gust: 9.8mph - -
Wind- - WSW
Pressure: 30.2 in 30 in -
Precipitation: 0 in    
Historical Graphs
 
 
Tabular Data for April 19, 2017
Time Temperature Dew Point Pressure Wind Wind Speed Wind Gust Humidity Rainfall Rate (Hourly) solar
00:03 54.7 °F 52.7 °F 30.2 in Calm   3.1 mph 93% 0 in 0 W/m2
00:08 54.5 °F 52.5 °F 30.2 in NNW 1.6 mph 6 mph 93% 0 in 0 W/m2
00:13 54.5 °F 52.9 °F 30.2 in Calm   6 mph 94% 0 in 0 W/m2
00:18 54.5 °F 52.9 °F 30.2 in Calm   6 mph 94% 0 in 0 W/m2
00:23 54.3 °F 52.5 °F 30.2 in Calm     94% 0 in 0 W/m2
00:28 54.3 °F 52.5 °F 30.2 in Calm     94% 0 in 0 W/m2
00:33 54.1 °F 52.5 °F 30.2 in Calm     94% 0 in 0 W/m2
00:38 54.1 °F 52.7 °F 30.2 in Calm     95% 0 in 0 W/m2
00:43 54 °F 52.5 °F 30.2 in Calm     95% 0 in 0 W/m2
00:48 54 °F 52.5 °F 30.2 in Calm     95% 0 in 0 W/m2
00:53 53.8 °F 52.3 °F 30.2 in Calm     95% 0 in 0 W/m2
00:58 53.6 °F 52.2 °F 30.2 in Calm     95% 0 in 0 W/m2
01:03 53.4 °F 52.3 °F 30.2 in Calm     96% 0 in 0 W/m2
01:08 53.2 °F 52.2 °F 30.2 in Calm     96% 0 in 0 W/m2
01:13 53.2 °F 52.2 °F 30.2 in Calm     96% 0 in 0 W/m2
01:18 52.9 °F 51.8 °F 30.2 in Calm     96% 0 in 0 W/m2
01:23 52.9 °F 51.8 °F 30.2 in Calm     96% 0 in 0 W/m2
01:28 53.1 °F 52.2 °F 30.2 in Calm     97% 0 in 0 W/m2
01:33 53.1 °F 52.2 °F 30.2 in Calm     97% 0 in 0 W/m2
01:38 53.1 °F 52.5 °F 30.2 in Calm     98% 0 in 0 W/m2
01:43 53.1 °F 52.5 °F 30.2 in Calm     98% 0 in 0 W/m2
01:48 53.2 °F 52.7 °F 30.2 in Calm     98% 0 in 0 W/m2
01:53 53.2 °F 52.7 °F 30.2 in Calm     98% 0 in 0 W/m2
01:59 53.1 °F 52.5 °F 30.2 in Calm     98% 0 in 0 W/m2
02:04 53.1 °F 52.5 °F 30.2 in Calm     98% 0 in 0 W/m2
02:09 53.1 °F 52.5 °F 30.2 in Calm     98% 0 in 0 W/m2
02:14 53.1 °F 52.5 °F 30.2 in Calm     98% 0 in 0 W/m2
02:19 53.1 °F 52.5 °F 30.2 in Calm     98% 0 in 0 W/m2
02:24 52.9 °F 52.3 °F 30.2 in Calm     98% 0 in 0 W/m2
02:29 52.9 °F 52.3 °F 30.2 in Calm     98% 0 in 0 W/m2
02:34 52.9 °F 52.3 °F 30.2 in Calm     98% 0 in 0 W/m2
02:39 52.9 °F 52.3 °F 30.2 in Calm     98% 0 in 0 W/m2
02:44 52.9 °F 52.3 °F 30.2 in Calm     98% 0 in 0 W/m2
02:49 52.9 °F 52.3 °F 30.2 in Calm     98% 0 in 0 W/m2
02:54 52.9 °F 52.3 °F 30.2 in Calm     98% 0 in 0 W/m2
02:59 52.7 °F 52.2 °F 30.2 in Calm     98% 0 in 0 W/m2
03:04 52.7 °F 52.2 °F 30.2 in Calm     98% 0 in 0 W/m2
03:09 52.5 °F 52 °F 30.2 in Calm     98% 0 in 0 W/m2
03:14 52.3 °F 51.8 °F 30.2 in Calm     98% 0 in 0 W/m2
03:19 52.2 °F 51.6 °F 30.2 in Calm     98% 0 in 0 W/m2
03:24 51.8 °F 51.3 °F 30.2 in NW 0.7 mph 2.2 mph 98% 0 in 0 W/m2
03:29 51.8 °F 51.3 °F 30.2 in Calm   2.2 mph 98% 0 in 0 W/m2
03:34 51.6 °F 51.4 °F 30.2 in Calm   2.2 mph 99% 0 in 0 W/m2
03:39 51.6 °F 51.4 °F 30.2 in Calm     99% 0 in 0 W/m2
03:44 51.6 °F 51.4 °F 30.2 in Calm     99% 0 in 0 W/m2
03:49 51.4 °F 51.3 °F 30.2 in Calm     99% 0 in 0 W/m2
03:54 51.4 °F 51.3 °F 30.2 in Calm     99% 0 in 0 W/m2
03:59 51.6 °F 51.4 °F 30.2 in Calm     99% 0 in 0 W/m2
04:04 51.8 °F 51.3 °F 30.2 in Calm     98% 0 in 0 W/m2
04:09 51.8 °F 51.3 °F 30.2 in Calm     98% 0 in 0 W/m2
04:14 51.8 °F 51.3 °F 30.2 in Calm     98% 0 in 0 W/m2
04:19 52 °F 51.4 °F 30.2 in Calm   4.5 mph 98% 0 in 0 W/m2
04:36 51.8 °F 51.3 °F 30.2 in Calm   3.8 mph 98% 0 in 0 W/m2
04:41 51.6 °F 51.4 °F 30.2 in Calm   0.7 mph 99% 0 in 0 W/m2
04:46 51.4 °F 51.3 °F 30.2 in Calm     99% 0 in 0 W/m2
04:51 51.4 °F 51.3 °F 30.2 in Calm     99% 0 in 0 W/m2
04:56 51.3 °F 51.1 °F 30.2 in Calm     99% 0 in 0 W/m2
05:02 51.3 °F 51.1 °F 30.2 in Calm     99% 0 in 0 W/m2
05:07 51.3 °F 51.1 °F 30.2 in Calm     99% 0 in 0 W/m2
05:12 51.3 °F 51.1 °F 30.2 in NW 1.6 mph 3.8 mph 99% 0 in 0 W/m2
05:17 51.4 °F 51.3 °F 30.2 in Calm   4.5 mph 99% 0 in 0 W/m2
05:22 51.4 °F 51.3 °F 30.2 in Calm   4.5 mph 99% 0 in 0 W/m2
05:27 51.4 °F 51.3 °F 30.2 in Calm   1.6 mph 99% 0 in 0 W/m2
05:32 51.3 °F 51.1 °F 30.2 in Calm     99% 0 in 0 W/m2
05:37 51.1 °F 50.7 °F 30.2 in Calm     99% 0 in 0 W/m2
05:42 51.1 °F 50.7 °F 30.2 in Calm     99% 0 in 0 W/m2
05:47 50.9 °F 50.5 °F 30.2 in Calm     99% 0 in 0 W/m2
05:52 50.7 °F 50.5 °F 30.2 in NW 1.6 mph 3.1 mph 99% 0 in 0 W/m2
05:57 50.7 °F 50.5 °F 30.1 in Calm   3.1 mph 99% 0 in 0 W/m2
06:02 50.7 °F 50.5 °F 30.2 in Calm   3.1 mph 99% 0 in 0 W/m2
06:07 50.5 °F 50.4 °F 30.1 in Calm     99% 0 in 0 W/m2
06:12 50.5 °F 50.4 °F 30.2 in Calm     99% 0 in 0 W/m2
06:17 50.5 °F 50.4 °F 30.2 in Calm   4.5 mph 99% 0 in 0 W/m2
06:22 50.4 °F 50.2 °F 30.2 in Calm   4.5 mph 99% 0 in 0 W/m2
06:28 50.2 °F 49.8 °F 30.2 in NW 0.7 mph 3.8 mph 99% 0 in 0 W/m2
06:33 50.2 °F 49.8 °F 30.2 in Calm   3.8 mph 99% 0 in 0 W/m2
06:38 50.2 °F 49.8 °F 30.2 in Calm   3.8 mph 99% 0 in 0 W/m2
06:43 50.2 °F 49.8 °F 30.2 in Calm     99% 0 in 3 W/m2
06:48 50.2 °F 49.8 °F 30.2 in Calm   2.2 mph 99% 0 in 4 W/m2
06:53 50.2 °F 49.8 °F 30.2 in Calm   2.2 mph 99% 0 in 6 W/m2
06:58 50.2 °F 49.8 °F 30.2 in Calm   2.2 mph 99% 0 in 9 W/m2
07:03 50.2 °F 49.8 °F 30.2 in Calm     99% 0 in 13 W/m2
07:08 50.2 °F 49.8 °F 30.2 in Calm   3.1 mph 99% 0 in 15 W/m2
07:13 50.2 °F 49.8 °F 30.2 in Calm   3.1 mph 99% 0 in 20 W/m2
07:18 50.4 °F 50.2 °F 30.2 in Calm     99% 0 in 40 W/m2
07:23 50.5 °F 50.4 °F 30.2 in Calm     99% 0 in 46 W/m2
07:28 51.1 °F 50.7 °F 30.2 in NNW 2.2 mph 3.8 mph 99% 0 in 116 W/m2
07:33 51.8 °F 51.3 °F 30.2 in NW 3.1 mph 5.4 mph 98% 0 in 143 W/m2
07:38 52.3 °F 51.8 °F 30.1 in NW 4.5 mph 5.4 mph 98% 0 in 156 W/m2
07:43 52.7 °F 52.2 °F 30.2 in NW 4.5 mph 6 mph 98% 0 in 171 W/m2
07:48 53.1 °F 52.5 °F 30.2 in NW 3.1 mph 6 mph 98% 0 in 181 W/m2
07:53 53.2 °F 52.7 °F 30.2 in NW 6 mph 7.6 mph 98% 0 in 190 W/m2
07:58 53.6 °F 52.9 °F 30.2 in NNW 3.1 mph 7.6 mph 97% 0 in 202 W/m2
08:03 53.8 °F 53.1 °F 30.2 in NW 3.1 mph 9.2 mph 97% 0 in 214 W/m2
08:08 54.1 °F 53.1 °F 30.2 in NNW 3.8 mph 9.2 mph 96% 0 in 235 W/m2
08:13 54.3 °F 52.5 °F 30.2 in NNW 3.1 mph 9.8 mph 94% 0 in 248 W/m2
08:18 55 °F 53.1 °F 30.2 in Calm   9.8 mph 93% 0 in 261 W/m2
08:23 55.8 °F 53.4 °F 30.2 in NNW 2.2 mph 6 mph 92% 0 in 273 W/m2
08:28 55.8 °F 52.9 °F 30.2 in NNW 4.5 mph 6.9 mph 90% 0 in 283 W/m2
08:33 55.8 °F 52.5 °F 30.2 in NNW 4.5 mph 6.9 mph 89% 0 in 290 W/m2
08:38 55.9 °F 52.9 °F 30.2 in NW 0.7 mph 6.9 mph 89% 0 in 298 W/m2
08:43 56.5 °F 53.1 °F 30.2 in NNW 3.8 mph 6.9 mph 88% 0 in 308 W/m2
08:48 56.7 °F 53.2 °F 30.2 in NNW 2.2 mph 6.9 mph 88% 0 in 328 W/m2
08:53 57 °F 53.4 °F 30.2 in NNW 3.1 mph 6.9 mph 88% 0 in 344 W/m2
08:58 57.7 °F 54 °F 30.2 in Calm   6.9 mph 87% 0 in 342 W/m2
09:03 58.1 °F 54 °F 30.2 in Calm   6.9 mph 86% 0 in 347 W/m2
09:08 58.6 °F 54.1 °F 30.2 in Calm   5.4 mph 85% 0 in 356 W/m2
09:13 59.9 °F 55 °F 30.2 in North 0.7 mph 4.5 mph 84% 0 in 365 W/m2
09:18 59.9 °F 54.3 °F 30.2 in Calm   4.5 mph 82% 0 in 370 W/m2
09:23 60.4 °F 54 °F 30.2 in North 3.1 mph 6.9 mph 79% 0 in 372 W/m2
09:28 60.6 °F 54.1 °F 30.2 in Calm   6.9 mph 79% 0 in 370 W/m2
09:33 60.6 °F 53.8 °F 30.2 in NNW 1.6 mph 6.9 mph 78% 0 in 201 W/m2
09:38 60.8 °F 54 °F 30.2 in NNW 2.2 mph 6.9 mph 78% 0 in 84 W/m2
09:43 60.6 °F 54.1 °F 30.2 in NNW 1.6 mph 6.9 mph 79% 0 in 74 W/m2
09:48 61.2 °F 54 °F 30.2 in NNW 5.4 mph 6 mph 77% 0 in 66 W/m2
09:53 61.5 °F 53.2 °F 30.2 in NNW 0.7 mph 6 mph 74% 0 in 61 W/m2
09:58 62.1 °F 53.2 °F 30.2 in Calm   6 mph 73% 0 in 59 W/m2
10:03 62.6 °F 53.4 °F 30.2 in NNE 0.7 mph 6.9 mph 72% 0 in 59 W/m2
10:08 62.4 °F 53.2 °F 30.2 in North 0.7 mph 6.9 mph 72% 0 in 60 W/m2
10:13 63 °F 53.4 °F 30.2 in North 1.6 mph 6.9 mph 71% 0 in 61 W/m2
10:18 63 °F 53.8 °F 30.2 in NNW 0.7 mph 6.9 mph 72% 0 in 69 W/m2
10:23 63.5 °F 52.9 °F 30.2 in NNW 0.7 mph 5.4 mph 68% 0 in 72 W/m2
10:28 64.8 °F 54.3 °F 30.1 in North 3.1 mph 5.4 mph 69% 0 in 133 W/m2
10:33 64 °F 52.5 °F 30.1 in Calm   6 mph 66% 0 in 86 W/m2
10:38 65.7 °F 55.2 °F 30.1 in NNW 3.1 mph 6 mph 69% 0 in 102 W/m2
10:43 64.8 °F 53.2 °F 30.1 in North 0.7 mph 5.4 mph 66% 0 in 429 W/m2
10:48 64.6 °F 53.1 °F 30.1 in North 1.6 mph 4.5 mph 66% 0 in 408 W/m2
10:53 64.9 °F 53.2 °F 30.1 in Calm   4.5 mph 66% 0 in 109 W/m2
10:58 66 °F 54.9 °F 30.1 in Calm   3.1 mph 67% 0 in 143 W/m2
11:03 65.3 °F 52.9 °F 30.1 in Calm   6 mph 64% 0 in 273 W/m2
11:08 65.5 °F 53.4 °F 30.1 in Calm   6 mph 65% 0 in 82 W/m2
11:13 66.2 °F 52.9 °F 30.1 in Calm   6.9 mph 62% 0 in 479 W/m2
11:18 65.5 °F 53.4 °F 30.1 in Calm   6.9 mph 65% 0 in 253 W/m2
11:23 65.8 °F 53.8 °F 30.1 in Calm     65% 0 in 480 W/m2
11:28 66.6 °F 53.2 °F 30.1 in Calm     62% 0 in 474 W/m2
11:33 67.5 °F 53.6 °F 30.1 in Calm     61% 0 in 482 W/m2
11:38 67.1 °F 52.9 °F 30.1 in Calm     60% 0 in 475 W/m2
11:43 65.8 °F 53.8 °F 30.1 in South 3.8 mph 6.9 mph 65% 0 in 515 W/m2
11:48 65.7 °F 53.6 °F 30.1 in SSW 2.2 mph 6.9 mph 65% 0 in 513 W/m2
11:53 65.7 °F 53.6 °F 30.1 in SSW 3.8 mph 6.9 mph 65% 0 in 529 W/m2
11:58 65.3 °F 53.2 °F 30.1 in South 4.5 mph 6.9 mph 65% 0 in 492 W/m2
12:03 65.1 °F 53.4 °F 30.1 in South 3.8 mph 6.9 mph 66% 0 in 490 W/m2
12:08 65.1 °F 54 °F 30.1 in SSE 3.8 mph 6.9 mph 67% 0 in 489 W/m2
12:13 66 °F 54.9 °F 30.1 in SSE 3.1 mph 6.9 mph 67% 0 in 467 W/m2
12:18 65.7 °F 54 °F 30.1 in SSE 3.1 mph 5.4 mph 66% 0 in 472 W/m2
12:23 66.6 °F 54 °F 30.1 in SSE 2.2 mph 5.4 mph 64% 0 in 475 W/m2
12:28 67.3 °F 54.7 °F 30.1 in SE 2.2 mph 4.5 mph 64% 0 in 460 W/m2
12:33 67.8 °F 54.9 °F 30.1 in SE 2.2 mph 5.4 mph 63% 0 in 460 W/m2
12:38 68.2 °F 55 °F 30.1 in SE 3.8 mph 5.4 mph 63% 0 in 456 W/m2
12:43 67.8 °F 54.9 °F 30.1 in SSE 1.6 mph 5.4 mph 63% 0 in 452 W/m2
12:48 68.2 °F 54.7 °F 30.1 in SSE 5.4 mph 6.9 mph 62% 0 in 448 W/m2
12:53 67.5 °F 54.9 °F 30.1 in SSE 1.6 mph 6.9 mph 64% 0 in 440 W/m2
12:58 68.2 °F 54.7 °F 30.1 in Calm   6.9 mph 62% 0 in 435 W/m2
13:03 68.2 °F 54.7 °F 30.1 in SSE 3.1 mph 6.9 mph 62% 0 in 346 W/m2
13:08 68.5 °F 55 °F 30.1 in SSE 3.1 mph 6.9 mph 62% 0 in 352 W/m2
13:13 68.5 °F 55 °F 30.1 in SSE 1.6 mph 6 mph 62% 0 in 417 W/m2
13:18 69.4 °F 55.4 °F 30.1 in SSE 2.2 mph 5.4 mph 61% 0 in 408 W/m2
13:23 69.3 °F 54.3 °F 30.1 in South 2.2 mph 6 mph 59% 0 in 407 W/m2
13:28 68.9 °F 54 °F 30.1 in SSE 4.5 mph 6.9 mph 59% 0 in 391 W/m2
13:34 68.4 °F 53.1 °F 30.1 in SSE 5.4 mph 7.6 mph 58% 0 in 376 W/m2
13:39 67.8 °F 53.4 °F 30.1 in South 0.7 mph 7.6 mph 60% 0 in 160 W/m2
13:44 68.4 °F 53.4 °F 30.1 in South 2.2 mph 7.6 mph 59% 0 in 102 W/m2
13:49 69.3 °F 53.4 °F 30.1 in SSE 1.6 mph 6 mph 57% 0 in 358 W/m2
13:54 69.4 °F 52.5 °F 30.1 in SE 1.6 mph 5.4 mph 55% 0 in 337 W/m2
13:59 68.5 °F 50.7 °F 30.1 in SE 4.5 mph 6.9 mph 53% 0 in 287 W/m2
14:04 68.5 °F 52.7 °F 30 in SSE 3.1 mph 6.9 mph 57% 0 in 328 W/m2
14:09 69.1 °F 52.7 °F 30.1 in SSE 2.2 mph 6.9 mph 56% 0 in 319 W/m2
14:14 68.9 °F 52.2 °F 30 in SSE 1.6 mph 6 mph 55% 0 in 60 W/m2
14:19 70 °F 52.2 °F 30 in SSE 1.6 mph 5.4 mph 53% 0 in 90 W/m2
14:24 69.8 °F 52 °F 30 in SE 0.7 mph 5.4 mph 53% 0 in 90 W/m2
14:29 70.2 °F 52.3 °F 30 in Calm   5.4 mph 53% 0 in 57 W/m2
14:34 71.2 °F 52.7 °F 30 in SE 3.1 mph 5.4 mph 52% 0 in 97 W/m2
14:39 69.8 °F 52 °F 30 in South 4.5 mph 7.6 mph 53% 0 in 65 W/m2
14:44 69.6 °F 53.2 °F 30 in South 0.7 mph 7.6 mph 56% 0 in 58 W/m2
14:50 70.5 °F 52.5 °F 30 in SSE 1.6 mph 7.6 mph 53% 0 in 59 W/m2
14:55 69.8 °F 52 °F 30 in SSE 1.6 mph 5.4 mph 53% 0 in 60 W/m2
15:00 70.2 °F 52.3 °F 30 in Calm   5.4 mph 53% 0 in 62 W/m2
15:05 70.9 °F 52.9 °F 30 in Calm   4.5 mph 53% 0 in 127 W/m2
15:10 70.2 °F 52.3 °F 30 in Calm   5.4 mph 53% 0 in 199 W/m2
15:16 70.2 °F 52.3 °F 30 in SE 0.7 mph 5.4 mph 53% 0 in 223 W/m2
15:21 69.8 °F 52 °F 30 in SE 3.8 mph 6 mph 53% 0 in 217 W/m2
15:26 69.8 °F 52.3 °F 30 in SE 2.2 mph 6 mph 54% 0 in 207 W/m2
15:31 70.2 °F 52.9 °F 30 in ESE 1.6 mph 5.4 mph 54% 0 in 197 W/m2
15:36 70 °F 52.2 °F 30 in SE 3.8 mph 6 mph 53% 0 in 187 W/m2
15:41 69.4 °F 53.1 °F 30 in SE 2.2 mph 6 mph 56% 0 in 174 W/m2
15:46 68.7 °F 52.9 °F 30 in SE 1.6 mph 6 mph 57% 0 in 138 W/m2
15:51 69.1 °F 53.8 °F 30 in SE 1.6 mph 5.4 mph 58% 0 in 149 W/m2
15:56 70.7 °F 53.8 °F 30 in Calm   3.8 mph 55% 0 in 138 W/m2
16:01 71.1 °F 53.6 °F 30 in Calm   3.8 mph 54% 0 in 126 W/m2
16:06 70.7 °F 52.9 °F 30 in SE 3.1 mph 4.5 mph 53% 0 in 115 W/m2
16:11 69.1 °F 52.3 °F 30 in ESE 0.7 mph 4.5 mph 55% 0 in 60 W/m2
16:17 66.9 °F 52.5 °F 30 in Calm   3.8 mph 60% 0 in 95 W/m2
16:22 65.7 °F 53.6 °F 30 in SSE 3.1 mph 6.9 mph 65% 0 in 50 W/m2
16:27 63.7 °F 52.9 °F 30 in Calm   6.9 mph 68% 0 in 53 W/m2
16:32 63.1 °F 53.2 °F 30 in Calm   3.1 mph 70% 0 in 48 W/m2
16:37 62.6 °F 53.1 °F 30 in Calm   2.2 mph 71% 0 in 51 W/m2
16:42 62.2 °F 53.1 °F 30 in Calm   1.6 mph 72% 0 in 37 W/m2
16:47 61.9 °F 53.1 °F 30 in Calm   1.6 mph 73% 0 in 31 W/m2
16:52 62.1 °F 53.2 °F 30 in Calm   1.6 mph 73% 0 in 31 W/m2
16:57 62.1 °F 53.2 °F 30 in Calm   0.7 mph 73% 0 in 29 W/m2
17:02 61.7 °F 53.1 °F 30 in Calm   0.7 mph 73% 0 in 28 W/m2
17:07 61.3 °F 52.5 °F 30 in Calm   0.7 mph 73% 0 in 29 W/m2
17:12 61.3 °F 52.5 °F 30 in Calm   0.7 mph 73% 0 in 20 W/m2
17:17 61 °F 52.5 °F 30 in Calm     74% 0 in 12 W/m2
17:22 60.8 °F 52.5 °F 30 in Calm     74% 0 in 7 W/m2
17:27 60.4 °F 52.9 °F 30 in Calm     76% 0 in 5 W/m2
17:32 60.3 °F 52.7 °F 30 in Calm     76% 0 in 3 W/m2
17:37 60.3 °F 53.1 °F 30 in Calm     77% 0 in 1 W/m2
17:42 60.1 °F 52.9 °F 30 in Calm     77% 0 in 0 W/m2
17:47 59.9 °F 53.1 °F 30 in Calm     78% 0 in 0 W/m2
17:52 59.9 °F 53.4 °F 30 in Calm     79% 0 in 0 W/m2
17:57 59.7 °F 53.6 °F 30 in Calm     80% 0 in 0 W/m2
18:02 59.5 °F 53.4 °F 30 in Calm     80% 0 in 0 W/m2
18:07 59.5 °F 53.4 °F 30 in Calm     80% 0 in 0 W/m2
18:12 59.4 °F 53.4 °F 30 in Calm     81% 0 in 0 W/m2
18:17 59.5 °F 53.8 °F 30 in Calm     81% 0 in 0 W/m2
18:22 59.5 °F 54.1 °F 30 in Calm   1.6 mph 82% 0 in 0 W/m2
18:27 59.5 °F 54.1 °F 30 in Calm   1.6 mph 82% 0 in 0 W/m2
18:32 59.5 °F 54.1 °F 30 in Calm   0.7 mph 82% 0 in 0 W/m2
18:37 59.7 °F 54.7 °F 30 in Calm     83% 0 in 0 W/m2
18:42 59.7 °F 54.7 °F 30 in Calm     83% 0 in 0 W/m2
18:47 59.5 °F 54.1 °F 30 in Calm     82% 0 in 0 W/m2
18:52 59.5 °F 53.8 °F 30 in Calm     81% 0 in 0 W/m2
18:57 59.5 °F 53.8 °F 30 in Calm     81% 0 in 0 W/m2
19:02 59.5 °F 53.4 °F 30 in Calm     80% 0 in 0 W/m2
19:07 59.5 °F 53.1 °F 30 in Calm     79% 0 in 0 W/m2
19:12 59.5 °F 53.4 °F 30 in Calm   0.7 mph 80% 0 in 0 W/m2
19:17 59.5 °F 54.1 °F 30 in Calm   1.6 mph 82% 0 in 0 W/m2
19:22 59.4 °F 54.1 °F 30 in Calm   1.6 mph 83% 0 in 0 W/m2
19:27 59 °F 54.5 °F 30 in Calm   2.2 mph 85% 0 in 0 W/m2
19:32 58.8 °F 54.7 °F 30 in Calm   2.2 mph 86% 0 in 0 W/m2
19:37 58.5 °F 54.7 °F 30 in NNW 3.1 mph 3.8 mph 87% 0 in 0 W/m2
19:42 58.3 °F 54.9 °F 30 in Calm   4.5 mph 88% 0 in 0 W/m2
19:47 57.9 °F 54.3 °F 30 in Calm   4.5 mph 88% 0 in 0 W/m2
19:52 57.6 °F 54.3 °F 30 in Calm   2.2 mph 89% 0 in 0 W/m2
19:57 57.4 °F 54.1 °F 30 in Calm   1.6 mph 89% 0 in 0 W/m2
20:02 57 °F 54.1 °F 30 in Calm     90% 0 in 0 W/m2
20:07 56.8 °F 54 °F 30 in Calm     90% 0 in 0 W/m2
20:12 56.7 °F 54.1 °F 30 in Calm     91% 0 in 0 W/m2
20:17 56.5 °F 54 °F 30 in Calm     91% 0 in 0 W/m2
20:22 56.5 °F 54 °F 30 in NW 1.6 mph 5.4 mph 91% 0 in 0 W/m2
20:27 56.5 °F 54.5 °F 30 in Calm   5.4 mph 93% 0 in 0 W/m2
20:32 56.3 °F 54.7 °F 30 in Calm   5.4 mph 94% 0 in 0 W/m2
20:37 56.3 °F 54.7 °F 30 in Calm   5.4 mph 94% 0 in 0 W/m2
20:42 56.1 °F 54.7 °F 30 in NNW 1.6 mph 4.5 mph 95% 0 in 0 W/m2
20:47 56.1 °F 54.7 °F 30 in Calm   4.5 mph 95% 0 in 0 W/m2
20:52 55.9 °F 54.5 °F 30 in Calm   3.8 mph 95% 0 in 0 W/m2
20:57 55.8 °F 54.3 °F 30 in Calm   3.8 mph 95% 0 in 0 W/m2
21:02 55.6 °F 54.1 °F 30 in Calm   3.1 mph 95% 0 in 0 W/m2
21:07 55.2 °F 53.8 °F 30 in Calm   0.7 mph 95% 0 in 0 W/m2
21:12 55 °F 53.6 °F 30 in North 1.6 mph 3.8 mph 95% 0 in 0 W/m2
21:17 54.9 °F 53.4 °F 30 in Calm   3.8 mph 95% 0 in 0 W/m2
21:22 54.9 °F 53.8 °F 30 in NNW 1.6 mph 3.8 mph 96% 0 in 0 W/m2
21:27 54.7 °F 53.6 °F 30 in NNW 0.7 mph 3.8 mph 96% 0 in 0 W/m2
21:32 54.7 °F 53.6 °F 30 in Calm   3.1 mph 96% 0 in 0 W/m2
21:37 54.5 °F 53.8 °F 30 in Calm   3.1 mph 97% 0 in 0 W/m2
21:42 54.3 °F 53.4 °F 30 in Calm   3.1 mph 97% 0 in 0 W/m2
21:47 54.3 °F 53.4 °F 30 in NNW 1.6 mph 3.8 mph 97% 0 in 0 W/m2
21:52 54.3 °F 53.4 °F 30 in Calm   3.8 mph 97% 0 in 0 W/m2
21:57 54.1 °F 53.2 °F 30 in Calm   3.1 mph 97% 0 in 0 W/m2
22:02 54.1 °F 53.2 °F 30 in Calm   2.2 mph 97% 0 in 0 W/m2
22:07 54 °F 53.1 °F 30 in NE 0.7 mph 2.2 mph 97% 0 in 0 W/m2
22:12 54 °F 53.1 °F 30 in Calm   2.2 mph 97% 0 in 0 W/m2
22:17 54 °F 53.1 °F 30 in NNW 1.6 mph 3.8 mph 97% 0 in 0 W/m2
22:22 54 °F 53.1 °F 30 in Calm   4.5 mph 97% 0 in 0 W/m2
22:27 53.8 °F 53.1 °F 30 in NNW 0.7 mph 4.5 mph 97% 0 in 0 W/m2
22:32 53.6 °F 52.9 °F 30 in NNW 0.7 mph 3.8 mph 97% 0 in 0 W/m2
22:37 53.4 °F 52.9 °F 30 in NW 0.7 mph 3.8 mph 98% 0 in 0 W/m2
22:42 53.4 °F 52.9 °F 30 in NW 1.6 mph 3.1 mph 98% 0 in 0 W/m2
22:47 53.4 °F 52.9 °F 30 in NW 2.2 mph 3.8 mph 98% 0 in 0 W/m2
22:52 53.2 °F 52.7 °F 30 in NNW 2.2 mph 3.8 mph 98% 0 in 0 W/m2
22:57 52.9 °F 52.3 °F 30 in NNW 1.6 mph 3.8 mph 98% 0 in 0 W/m2
23:02 53.1 °F 52.5 °F 30 in NNW 0.7 mph 4.5 mph 98% 0 in 0 W/m2
23:07 52.7 °F 52.2 °F 30 in NNW 1.6 mph 4.5 mph 98% 0 in 0 W/m2
23:12 52.5 °F 52 °F 30 in NW 2.2 mph 4.5 mph 98% 0 in 0 W/m2
23:17 52.3 °F 51.8 °F 30 in NW 2.2 mph 4.5 mph 98% 0 in 0 W/m2
23:22 52.3 °F 51.8 °F 30 in NW 2.2 mph 4.5 mph 98% 0 in 0 W/m2
23:27 52.3 °F 51.8 °F 30 in NW 2.2 mph 5.4 mph 98% 0 in 0 W/m2
23:32 52.3 °F 51.8 °F 30 in NNW 1.6 mph 6 mph 98% 0 in 0 W/m2
23:37 52.3 °F 51.8 °F 30 in NNW 2.2 mph 6 mph 98% 0 in 0 W/m2
23:42 52.5 °F 52 °F 30 in Calm   6 mph 98% 0 in 0 W/m2
23:47 52.5 °F 52 °F 30 in North 2.2 mph 6 mph 98% 0 in 0 W/m2
23:52 52.5 °F 52 °F 30 in Calm   6 mph 98% 0 in 0 W/m2
23:57 52.7 °F 52.2 °F 30 in North 2.2 mph 6 mph 98% 0 in 0 W/m2
Northern Hawkes Bay. New Zealand Historic Data
Compliments of Weather Underground - 2.25 mb